createdAt,value
2023-04-05T00:00:18.052Z,24.41
2023-04-05T00:01:18.112Z,24.41
2023-04-05T00:02:18.192Z,24.40
2023-04-05T00:03:18.389Z,24.39
2023-04-05T00:04:18.401Z,24.39
2023-04-05T00:05:18.454Z,24.39
2023-04-05T00:06:18.494Z,24.40
2023-04-05T00:07:18.558Z,24.39
2023-04-05T00:08:18.632Z,24.39
2023-04-05T00:09:18.695Z,24.40
2023-04-05T00:10:18.776Z,24.40
2023-04-05T00:11:18.879Z,24.40
2023-04-05T00:12:18.916Z,24.39
2023-04-05T00:13:19.001Z,24.39
2023-04-05T00:14:19.092Z,24.39
2023-04-05T00:15:19.160Z,24.38
2023-04-05T00:16:19.262Z,24.40
2023-04-05T00:17:19.285Z,24.39
2023-04-05T00:18:19.370Z,24.39
2023-04-05T00:19:19.440Z,24.39
2023-04-05T00:20:19.531Z,24.39
2023-04-05T00:21:19.585Z,24.39
2023-04-05T00:22:19.664Z,24.40
2023-04-05T00:23:19.758Z,24.39
2023-04-05T00:24:19.828Z,24.39
2023-04-05T00:25:19.898Z,24.38
2023-04-05T00:26:19.983Z,24.38
2023-04-05T00:27:20.038Z,24.39
2023-04-05T00:28:20.239Z,24.39
2023-04-05T00:29:20.218Z,24.39
2023-04-05T00:30:20.329Z,24.39
2023-04-05T00:31:20.348Z,24.39
2023-04-05T00:32:20.430Z,24.39
2023-04-05T00:33:20.520Z,24.38
2023-04-05T00:34:20.591Z,24.38
2023-04-05T00:35:20.654Z,24.39
2023-04-05T00:36:20.721Z,24.39
2023-04-05T00:37:20.800Z,24.38
2023-04-05T00:38:20.876Z,24.38
2023-04-05T00:39:20.967Z,24.37
2023-04-05T00:40:21.039Z,24.37
2023-04-05T00:41:21.110Z,24.37
2023-04-05T00:42:21.182Z,24.38
2023-04-05T00:43:21.262Z,24.37
2023-04-05T00:44:21.365Z,24.37
2023-04-05T00:45:21.425Z,24.38
2023-04-05T00:46:21.518Z,24.38
2023-04-05T00:47:21.571Z,24.37
2023-04-05T00:48:21.652Z,24.37
2023-04-05T00:49:21.756Z,24.37
2023-04-05T00:50:21.788Z,24.37
2023-04-05T00:51:21.885Z,24.37
2023-04-05T00:52:21.949Z,24.37
2023-04-05T00:53:22.020Z,24.36
2023-04-05T00:54:22.096Z,24.37
2023-04-05T00:55:22.159Z,24.37
2023-04-05T00:56:22.226Z,24.37
2023-04-05T00:57:22.300Z,24.36
2023-04-05T00:58:22.385Z,24.37
2023-04-05T00:59:22.492Z,24.36
2023-04-05T01:00:22.514Z,24.37
2023-04-05T01:01:22.813Z,24.37
2023-04-05T01:02:22.752Z,24.36
2023-04-05T01:03:22.747Z,24.36
2023-04-05T01:04:22.884Z,24.36
2023-04-05T01:05:22.906Z,24.35
2023-04-05T01:06:22.978Z,24.35
2023-04-05T01:07:23.073Z,24.36
2023-04-05T01:08:23.130Z,24.34
2023-04-05T01:09:23.262Z,24.35
2023-04-05T01:10:23.315Z,24.35
2023-04-05T01:11:23.377Z,24.35
2023-04-05T01:12:23.448Z,24.36
2023-04-05T01:13:23.520Z,24.36
2023-04-05T01:14:23.619Z,24.35
2023-04-05T01:15:23.690Z,24.35
2023-04-05T01:16:23.752Z,24.35
2023-04-05T01:17:23.844Z,24.34
2023-04-05T01:18:23.863Z,24.34
2023-04-05T01:19:23.913Z,24.34
2023-04-05T01:20:23.954Z,24.33
2023-04-05T01:21:23.968Z,24.34
2023-04-05T01:22:24.013Z,24.34
2023-04-05T01:23:24.037Z,24.33
2023-04-05T01:24:24.078Z,24.33
2023-04-05T01:25:24.111Z,24.33
2023-04-05T01:26:24.146Z,24.33
2023-04-05T01:27:24.186Z,24.33
2023-04-05T01:28:24.210Z,24.33
2023-04-05T01:29:24.253Z,24.33
2023-04-05T01:30:24.267Z,24.34
2023-04-05T01:31:24.335Z,24.33
2023-04-05T01:32:24.373Z,24.33
2023-04-05T01:33:24.439Z,24.33
2023-04-05T01:34:24.531Z,24.33
2023-04-05T01:35:24.547Z,24.32
2023-04-05T01:36:24.619Z,24.33
2023-04-05T01:37:24.610Z,24.33
2023-04-05T01:38:24.646Z,24.33
2023-04-05T01:39:24.748Z,24.33
2023-04-05T01:40:24.725Z,24.33
2023-04-05T01:41:24.748Z,24.33
2023-04-05T01:42:24.789Z,24.32
2023-04-05T01:43:24.837Z,24.32
2023-04-05T01:44:24.884Z,24.31
2023-04-05T01:45:24.897Z,24.32
2023-04-05T01:46:24.952Z,24.31
2023-04-05T01:47:25.047Z,24.31
2023-04-05T01:48:24.997Z,24.32
2023-04-05T01:49:25.023Z,24.31
2023-04-05T01:50:25.053Z,24.31
2023-04-05T01:51:25.081Z,24.31
2023-04-05T01:52:25.119Z,24.31
2023-04-05T01:53:25.157Z,24.31
2023-04-05T01:54:25.189Z,24.31
2023-04-05T01:55:25.216Z,24.31
2023-04-05T01:56:25.252Z,24.31
2023-04-05T01:57:25.283Z,24.30
2023-04-05T01:58:25.334Z,24.30
2023-04-05T01:59:25.391Z,24.30
2023-04-05T02:00:25.422Z,24.31
2023-04-05T02:01:25.601Z,24.30
2023-04-05T02:02:25.610Z,24.30
2023-04-05T02:03:25.710Z,24.30
2023-04-05T02:04:25.710Z,24.30
2023-04-05T02:05:25.787Z,24.30
2023-04-05T02:06:25.852Z,24.30
2023-04-05T02:07:25.931Z,24.30
2023-04-05T02:08:25.968Z,24.30
2023-04-05T02:09:26.015Z,24.30
2023-04-05T02:10:26.032Z,24.31
2023-04-05T02:11:26.064Z,24.30
2023-04-05T02:12:26.091Z,24.31
2023-04-05T02:13:26.126Z,24.30
2023-04-05T02:14:26.168Z,24.30
2023-04-05T02:15:26.181Z,24.30
2023-04-05T02:16:26.253Z,24.29
2023-04-05T02:17:26.285Z,24.29
2023-04-05T02:18:26.289Z,24.30
2023-04-05T02:19:26.320Z,24.30
2023-04-05T02:20:26.338Z,24.30
2023-04-05T02:21:26.395Z,24.30
2023-04-05T02:22:26.464Z,24.29
2023-04-05T02:23:26.549Z,24.29
2023-04-05T02:24:26.628Z,24.29
2023-04-05T02:25:26.712Z,24.29
2023-04-05T02:26:26.805Z,24.29
2023-04-05T02:27:26.847Z,24.28
2023-04-05T02:28:26.930Z,24.28
2023-04-05T02:29:27.021Z,24.29
2023-04-05T02:30:27.088Z,24.29
2023-04-05T02:31:27.207Z,24.28
2023-04-05T02:32:27.263Z,24.28
2023-04-05T02:33:27.326Z,24.28
2023-04-05T02:34:27.414Z,24.29
2023-04-05T02:35:27.491Z,24.29
2023-04-05T02:36:27.555Z,24.28
2023-04-05T02:37:27.627Z,24.28
2023-04-05T02:38:27.705Z,24.28
2023-04-05T02:39:27.767Z,24.28
2023-04-05T02:40:27.849Z,24.28
2023-04-05T02:41:27.919Z,24.28
2023-04-05T02:42:28.006Z,24.28
2023-04-05T02:43:28.069Z,24.28
2023-04-05T02:44:28.149Z,24.28
2023-04-05T02:45:28.229Z,24.27
2023-04-05T02:46:28.270Z,24.27
2023-04-05T02:47:28.357Z,24.28
2023-04-05T02:48:28.400Z,24.27
2023-04-05T02:49:28.483Z,24.28
2023-04-05T02:50:28.549Z,24.27
2023-04-05T02:51:28.617Z,24.27
2023-04-05T02:52:28.674Z,24.27
2023-04-05T02:53:28.748Z,24.27
2023-04-05T02:54:28.803Z,24.28
2023-04-05T02:55:28.901Z,24.28
2023-04-05T02:56:28.982Z,24.28
2023-04-05T02:57:29.025Z,24.28
2023-04-05T02:58:29.093Z,24.28
2023-04-05T02:59:29.256Z,24.28
2023-04-05T03:00:29.253Z,24.27
2023-04-05T03:01:29.344Z,24.27
2023-04-05T03:02:29.408Z,24.27
2023-04-05T03:03:29.532Z,24.27
2023-04-05T03:04:29.541Z,24.26
2023-04-05T03:05:29.628Z,24.26
2023-04-05T03:06:29.695Z,24.26
2023-04-05T03:07:29.757Z,24.25
2023-04-05T03:08:29.854Z,24.26
2023-04-05T03:09:29.916Z,24.27
2023-04-05T03:10:29.976Z,24.26
2023-04-05T03:11:30.286Z,24.26
2023-04-05T03:12:30.130Z,24.26
2023-04-05T03:13:30.196Z,24.26
2023-04-05T03:14:30.257Z,24.26
2023-04-05T03:15:30.339Z,24.26
2023-04-05T03:16:30.423Z,24.25
2023-04-05T03:17:30.515Z,24.26
2023-04-05T03:18:30.569Z,24.26
2023-04-05T03:19:30.621Z,24.25
2023-04-05T03:20:30.714Z,24.25
2023-04-05T03:21:30.840Z,24.25
2023-04-05T03:22:30.850Z,24.25
2023-04-05T03:23:30.980Z,24.25
2023-04-05T03:24:31.006Z,24.25
2023-04-05T03:25:31.079Z,24.25
2023-04-05T03:26:31.159Z,24.26
2023-04-05T03:27:31.196Z,24.24
2023-04-05T03:28:31.281Z,24.24
2023-04-05T03:29:31.348Z,24.26
2023-04-05T03:30:31.423Z,24.25
2023-04-05T03:31:31.517Z,24.25
2023-04-05T03:32:31.625Z,24.25
2023-04-05T03:33:31.653Z,24.24
2023-04-05T03:34:31.726Z,24.26
2023-04-05T03:35:31.814Z,24.25
2023-04-05T03:36:31.872Z,24.25
2023-04-05T03:37:31.983Z,24.25
2023-04-05T03:38:32.042Z,24.25
2023-04-05T03:39:32.111Z,24.24
2023-04-05T03:40:32.190Z,24.25
2023-04-05T03:41:32.252Z,24.25
2023-04-05T03:42:32.361Z,24.24
2023-04-05T03:43:32.388Z,24.25
2023-04-05T03:44:32.471Z,24.24
2023-04-05T03:45:32.556Z,24.24
2023-04-05T03:46:32.677Z,24.24
2023-04-05T03:47:32.725Z,24.24
2023-04-05T03:48:32.773Z,24.23
2023-04-05T03:49:33.425Z,24.24
2023-04-05T03:50:32.919Z,24.24
2023-04-05T03:51:32.959Z,24.24
2023-04-05T03:52:33.053Z,24.23
2023-04-05T03:53:33.114Z,24.24
2023-04-05T03:54:33.185Z,24.23
2023-04-05T03:55:33.267Z,24.23
2023-04-05T03:56:33.313Z,24.23
2023-04-05T03:57:33.388Z,24.23
2023-04-05T03:58:33.443Z,24.23
2023-04-05T03:59:33.591Z,24.23
2023-04-05T04:00:33.585Z,24.24
2023-04-05T04:01:33.671Z,24.24
2023-04-05T04:02:33.855Z,24.24
2023-04-05T04:03:33.787Z,24.24
2023-04-05T04:04:33.887Z,24.24
2023-04-05T04:05:33.953Z,24.24
2023-04-05T04:06:34.058Z,24.24
2023-04-05T04:07:34.094Z,24.24
2023-04-05T04:08:34.165Z,24.24
2023-04-05T04:09:34.235Z,24.23
2023-04-05T04:10:34.329Z,24.24
2023-04-05T04:11:34.390Z,24.24
2023-04-05T04:12:34.442Z,24.24
2023-04-05T04:13:34.509Z,24.24
2023-04-05T04:14:34.582Z,24.24
2023-04-05T04:15:34.657Z,24.24
2023-04-05T04:16:34.772Z,24.23
2023-04-05T04:17:34.836Z,24.24
2023-04-05T04:18:34.859Z,24.24
2023-04-05T04:19:34.926Z,24.24
2023-04-05T04:20:34.999Z,24.23
2023-04-05T04:21:35.078Z,24.24
2023-04-05T04:22:35.140Z,24.23
2023-04-05T04:23:35.205Z,24.23
2023-04-05T04:24:35.286Z,24.23
2023-04-05T04:25:35.344Z,24.23
2023-04-05T04:26:35.455Z,24.23
2023-04-05T04:27:35.496Z,24.23
2023-04-05T04:28:35.567Z,24.23
2023-04-05T04:29:35.640Z,24.23
2023-04-05T04:30:35.717Z,24.24
2023-04-05T04:31:35.796Z,24.23
2023-04-05T04:32:35.892Z,24.23
2023-04-05T04:33:35.933Z,24.23
2023-04-05T04:34:36.008Z,24.23
2023-04-05T04:35:36.109Z,24.23
2023-04-05T04:36:36.172Z,24.23
2023-04-05T04:37:36.237Z,24.23
2023-04-05T04:38:36.327Z,24.23
2023-04-05T04:39:37.867Z,24.23
2023-04-05T04:40:36.449Z,24.23
2023-04-05T04:41:36.533Z,24.24
2023-04-05T04:42:36.603Z,24.23
2023-04-05T04:43:36.675Z,24.23
2023-04-05T04:44:36.746Z,24.23
2023-04-05T04:45:36.857Z,24.23
2023-04-05T04:46:36.911Z,24.23
2023-04-05T04:47:36.997Z,24.23
2023-04-05T04:48:37.059Z,24.23
2023-04-05T04:49:37.133Z,24.22
2023-04-05T04:50:37.215Z,24.23
2023-04-05T04:51:37.280Z,24.23
2023-04-05T04:52:37.352Z,24.23
2023-04-05T04:53:37.438Z,24.23
2023-04-05T04:54:37.507Z,24.23
2023-04-05T04:55:37.578Z,24.23
2023-04-05T04:56:37.645Z,24.23
2023-04-05T04:57:37.718Z,24.23
2023-04-05T04:58:37.773Z,24.22
2023-04-05T04:59:37.787Z,24.22
2023-04-05T05:00:37.832Z,24.22
2023-04-05T05:01:37.923Z,24.23
2023-04-05T05:02:37.909Z,24.23
2023-04-05T05:03:37.933Z,24.22
2023-04-05T05:04:37.970Z,24.23
2023-04-05T05:05:37.982Z,24.23
2023-04-05T05:06:38.047Z,24.22
2023-04-05T05:07:38.059Z,24.23
2023-04-05T05:08:38.141Z,24.23
2023-04-05T05:09:38.169Z,24.23
2023-04-05T05:10:38.200Z,24.23
2023-04-05T05:11:38.226Z,24.23
2023-04-05T05:12:38.294Z,24.23
2023-04-05T05:13:38.369Z,24.24
2023-04-05T05:14:38.467Z,24.24
2023-04-05T05:15:38.541Z,24.24
2023-04-05T05:16:38.690Z,24.24
2023-04-05T05:17:38.718Z,24.23
2023-04-05T05:18:38.750Z,24.24
2023-04-05T05:19:38.829Z,24.23
2023-04-05T05:20:39.121Z,24.24
2023-04-05T05:21:39.011Z,24.24
2023-04-05T05:22:39.060Z,24.24
2023-04-05T05:23:39.123Z,24.24
2023-04-05T05:24:39.186Z,24.25
2023-04-05T05:25:39.239Z,24.24
2023-04-05T05:26:39.279Z,24.24
2023-04-05T05:27:39.289Z,24.25
2023-04-05T05:28:39.338Z,24.25
2023-04-05T05:29:39.369Z,24.26
2023-04-05T05:30:39.582Z,24.25
2023-04-05T05:31:39.429Z,24.26
2023-04-05T05:32:41.210Z,24.26
2023-04-05T05:33:39.492Z,24.26
2023-04-05T05:34:39.522Z,24.26
2023-04-05T05:35:39.644Z,24.26
2023-04-05T05:36:39.595Z,24.26
2023-04-05T05:37:39.638Z,24.26
2023-04-05T05:38:39.663Z,24.27
2023-04-05T05:39:39.699Z,24.27
2023-04-05T05:40:40.101Z,24.27
2023-04-05T05:41:39.777Z,24.27
2023-04-05T05:42:39.805Z,24.28
2023-04-05T05:43:39.974Z,24.28
2023-04-05T05:44:39.904Z,24.29
2023-04-05T05:45:39.914Z,24.29
2023-04-05T05:46:40.046Z,24.29
2023-04-05T05:47:40.018Z,24.29
2023-04-05T05:48:40.024Z,24.29
2023-04-05T05:49:40.068Z,24.29
2023-04-05T05:50:40.344Z,24.29
2023-04-05T05:51:40.162Z,24.29
2023-04-05T05:52:40.196Z,24.30
2023-04-05T05:53:40.202Z,24.30
2023-04-05T05:54:40.237Z,24.30
2023-04-05T05:55:40.270Z,24.31
2023-04-05T05:56:40.306Z,24.31
2023-04-05T05:57:40.357Z,24.32
2023-04-05T05:58:40.400Z,24.31
2023-04-05T05:59:40.411Z,24.33
2023-04-05T06:00:40.647Z,24.33
2023-04-05T06:01:40.487Z,24.32
2023-04-05T06:02:40.645Z,24.32
2023-04-05T06:03:40.679Z,24.33
2023-04-05T06:04:40.636Z,24.33
2023-04-05T06:05:40.630Z,24.33
2023-04-05T06:06:40.665Z,24.33
2023-04-05T06:07:40.701Z,24.32
2023-04-05T06:08:40.738Z,24.32
2023-04-05T06:09:40.782Z,24.33
2023-04-05T06:10:40.944Z,24.33
2023-04-05T06:11:53.107Z,24.33
2023-04-05T06:12:41.887Z,24.33
2023-04-05T06:13:40.924Z,24.33
2023-04-05T06:14:40.996Z,24.33
2023-04-05T06:15:40.988Z,24.34
2023-04-05T06:16:41.077Z,24.35
2023-04-05T06:17:41.093Z,24.34
2023-04-05T06:18:41.113Z,24.35
2023-04-05T06:19:41.137Z,24.35
2023-04-05T06:20:41.509Z,24.34
2023-04-05T06:21:41.253Z,24.34
2023-04-05T06:22:41.277Z,24.34
2023-04-05T06:23:41.286Z,24.34
2023-04-05T06:24:41.318Z,24.35
2023-04-05T06:25:41.358Z,24.35
2023-04-05T06:26:41.425Z,24.36
2023-04-05T06:27:42.480Z,24.35
2023-04-05T06:28:41.572Z,24.35
2023-04-05T06:29:41.645Z,24.36
2023-04-05T06:30:41.851Z,24.37
2023-04-05T06:31:41.829Z,24.38
2023-04-05T06:32:42.053Z,24.38
2023-04-05T06:33:41.949Z,24.39
2023-04-05T06:34:42.027Z,24.39
2023-04-05T06:35:42.156Z,24.39
2023-04-05T06:36:42.189Z,24.39
2023-04-05T06:37:42.267Z,24.39
2023-04-05T06:38:42.327Z,24.39
2023-04-05T06:39:42.398Z,24.39
2023-04-05T06:40:42.581Z,24.39
2023-04-05T06:41:42.535Z,24.40
2023-04-05T06:42:42.647Z,24.40
2023-04-05T06:43:42.716Z,24.40
2023-04-05T06:44:42.782Z,24.40
2023-04-05T06:45:42.869Z,24.39
2023-04-05T06:46:42.921Z,24.40
2023-04-05T06:47:43.068Z,24.40
2023-04-05T06:48:43.094Z,24.40
2023-04-05T06:49:43.165Z,24.40
2023-04-05T06:50:43.404Z,24.40
2023-04-05T06:51:43.333Z,24.40
2023-04-05T06:52:43.409Z,24.40
2023-04-05T06:53:43.511Z,24.42
2023-04-05T06:54:43.555Z,24.42
2023-04-05T06:55:43.632Z,24.42
2023-04-05T06:56:43.722Z,24.42
2023-04-05T06:57:43.791Z,24.43
2023-04-05T06:58:43.855Z,24.43
2023-04-05T06:59:43.923Z,24.44
2023-04-05T07:00:44.001Z,24.49
2023-04-05T07:01:44.194Z,24.54
2023-04-05T07:02:44.203Z,24.60
2023-04-05T07:03:44.259Z,24.65
2023-04-05T07:04:44.333Z,24.70
2023-04-05T07:05:44.310Z,24.74
2023-04-05T07:06:44.388Z,24.79
2023-04-05T07:07:44.419Z,24.84
2023-04-05T07:08:44.493Z,24.88
2023-04-05T07:09:44.528Z,24.92
2023-04-05T07:10:44.556Z,24.97
2023-04-05T07:11:44.620Z,25.02
2023-04-05T07:12:44.667Z,25.05
2023-04-05T07:13:45.517Z,25.09
2023-04-05T07:14:44.784Z,25.13
2023-04-05T07:15:44.820Z,25.17
2023-04-05T07:16:44.781Z,25.21
2023-04-05T07:17:44.818Z,25.25
2023-04-05T07:18:44.985Z,25.28
2023-04-05T07:19:45.026Z,25.33
2023-04-05T07:20:44.954Z,25.36
2023-04-05T07:21:44.941Z,25.39
2023-04-05T07:22:45.105Z,25.43
2023-04-05T07:23:45.079Z,25.46
2023-04-05T07:24:46.979Z,25.51
2023-04-05T07:25:45.213Z,25.54
2023-04-05T07:26:45.303Z,25.57
2023-04-05T07:27:45.424Z,25.60
2023-04-05T07:28:45.503Z,25.64
2023-04-05T07:29:47.761Z,25.66
2023-04-05T07:30:45.648Z,25.69
2023-04-05T07:31:45.650Z,25.71
2023-04-05T07:32:45.709Z,25.74
2023-04-05T07:33:45.744Z,25.78
2023-04-05T07:34:45.713Z,25.80
2023-04-05T07:35:45.823Z,25.82
2023-04-05T07:36:45.757Z,25.84
2023-04-05T07:37:45.756Z,25.86
2023-04-05T07:38:45.772Z,25.88
2023-04-05T07:39:45.769Z,25.91
2023-04-05T07:40:45.841Z,25.93
2023-04-05T07:41:45.854Z,25.96
2023-04-05T07:42:45.800Z,25.98
2023-04-05T07:43:45.832Z,26.01
2023-04-05T07:44:45.865Z,26.03
2023-04-05T07:45:45.856Z,26.06
2023-04-05T07:46:49.059Z,26.07
2023-04-05T07:47:45.930Z,26.10
2023-04-05T07:48:45.908Z,26.13
2023-04-05T07:49:45.925Z,26.14
2023-04-05T07:50:45.951Z,26.16
2023-04-05T07:51:45.947Z,26.17
2023-04-05T07:52:46.010Z,26.19
2023-04-05T07:53:45.992Z,26.20
2023-04-05T07:54:46.012Z,26.22
2023-04-05T07:55:45.987Z,26.23
2023-04-05T07:56:46.024Z,26.25
2023-04-05T07:57:46.028Z,26.27
2023-04-05T07:58:46.026Z,26.29
2023-04-05T07:59:46.077Z,26.31
2023-04-05T08:00:46.081Z,26.32
2023-04-05T08:01:46.074Z,26.32
2023-04-05T08:02:46.145Z,26.30
2023-04-05T08:03:46.196Z,26.29
2023-04-05T08:04:46.170Z,26.27
2023-04-05T08:05:46.175Z,26.24
2023-04-05T08:06:46.143Z,26.21
2023-04-05T08:07:46.144Z,26.19
2023-04-05T08:08:46.204Z,26.17
2023-04-05T08:09:46.181Z,26.17
2023-04-05T08:10:46.180Z,26.16
2023-04-05T08:11:46.184Z,26.15
2023-04-05T08:12:46.183Z,26.14
2023-04-05T08:13:46.234Z,26.14
2023-04-05T08:14:46.223Z,26.13
2023-04-05T08:15:46.231Z,26.13
2023-04-05T08:16:46.469Z,26.12
2023-04-05T08:17:46.363Z,26.12
2023-04-05T08:18:46.518Z,26.11
2023-04-05T08:19:46.444Z,26.10
2023-04-05T08:20:46.502Z,26.10
2023-04-05T08:21:46.543Z,26.08
2023-04-05T08:22:46.577Z,26.06
2023-04-05T08:23:46.671Z,26.05
2023-04-05T08:24:46.752Z,26.04
2023-04-05T08:25:46.787Z,26.03
2023-04-05T08:26:46.818Z,26.03
2023-04-05T08:27:46.889Z,26.04
2023-04-05T08:28:47.035Z,26.04
2023-04-05T08:29:47.036Z,26.03
2023-04-05T08:30:47.101Z,26.04
2023-04-05T08:31:47.256Z,26.03
2023-04-05T08:32:47.138Z,26.03
2023-04-05T08:33:48.030Z,26.03
2023-04-05T08:34:47.137Z,26.02
2023-04-05T08:35:47.150Z,26.01
2023-04-05T08:36:48.811Z,26.01
2023-04-05T08:37:47.180Z,26.01
2023-04-05T08:38:47.213Z,26.01
2023-04-05T08:39:47.216Z,26.00
2023-04-05T08:40:47.258Z,26.00
2023-04-05T08:41:47.251Z,26.00
2023-04-05T08:42:47.264Z,26.00
2023-04-05T08:43:47.289Z,25.99
2023-04-05T08:44:47.338Z,25.97
2023-04-05T08:45:47.442Z,25.98
2023-04-05T08:46:47.437Z,25.97
2023-04-05T08:47:47.674Z,25.97
2023-04-05T08:48:47.602Z,25.97
2023-04-05T08:49:47.671Z,25.97
2023-04-05T08:50:47.686Z,25.96
2023-04-05T08:51:47.758Z,25.95
2023-04-05T08:52:47.823Z,25.94
2023-04-05T08:53:47.904Z,25.94
2023-04-05T08:54:49.674Z,25.94
2023-04-05T08:55:47.951Z,25.93
2023-04-05T08:56:47.993Z,25.92
2023-04-05T08:57:47.992Z,25.93
2023-04-05T08:58:48.070Z,25.94
2023-04-05T08:59:48.045Z,25.95
2023-04-05T09:00:48.096Z,25.95
2023-04-05T09:01:48.104Z,25.95
2023-04-05T09:02:48.161Z,25.95
2023-04-05T09:03:48.136Z,25.95
2023-04-05T09:04:48.116Z,25.95
2023-04-05T09:05:48.140Z,25.95
2023-04-05T09:06:48.156Z,25.95
2023-04-05T09:07:48.172Z,25.95
2023-04-05T09:08:48.199Z,25.96
2023-04-05T09:09:48.196Z,25.96
2023-04-05T09:10:48.217Z,25.95
2023-04-05T09:11:48.239Z,25.95
2023-04-05T09:12:48.238Z,25.94
2023-04-05T09:13:48.275Z,25.94
2023-04-05T09:14:48.275Z,25.94
2023-04-05T09:15:48.312Z,25.94
2023-04-05T09:16:48.328Z,25.94
2023-04-05T09:17:48.409Z,25.94
2023-04-05T09:18:48.367Z,25.94
2023-04-05T09:19:48.336Z,25.93
2023-04-05T09:20:48.351Z,25.92
2023-04-05T09:21:48.384Z,25.93
2023-04-05T09:22:48.388Z,25.93
2023-04-05T09:23:48.417Z,25.93
2023-04-05T09:24:48.425Z,25.93
2023-04-05T09:25:48.455Z,25.92
2023-04-05T09:26:48.533Z,25.92
2023-04-05T09:27:48.569Z,25.90
2023-04-05T09:28:48.666Z,25.91
2023-04-05T09:29:48.667Z,25.90
2023-04-05T09:30:48.737Z,25.89
2023-04-05T09:31:48.921Z,25.89
2023-04-05T09:32:48.887Z,25.88
2023-04-05T09:33:48.957Z,25.88
2023-04-05T09:34:49.569Z,25.87
2023-04-05T09:35:48.938Z,25.87
2023-04-05T09:36:48.930Z,25.88
2023-04-05T09:37:48.935Z,25.87
2023-04-05T09:38:48.978Z,25.87
2023-04-05T09:39:48.969Z,25.87
2023-04-05T09:40:48.995Z,25.86
2023-04-05T09:41:48.983Z,25.84
2023-04-05T09:42:48.986Z,25.84
2023-04-05T09:43:49.164Z,25.84
2023-04-05T09:44:49.058Z,25.85
2023-04-05T09:45:49.172Z,25.84
2023-04-05T09:46:52.071Z,25.82
2023-04-05T09:47:50.041Z,25.82
2023-04-05T09:48:49.211Z,25.82
2023-04-05T09:49:49.260Z,25.81
2023-04-05T09:50:49.268Z,25.81
2023-04-05T09:51:49.254Z,25.80
2023-04-05T09:52:49.293Z,25.80
2023-04-05T09:53:49.289Z,25.80
2023-04-05T09:54:49.330Z,25.79
2023-04-05T09:55:49.329Z,25.78
2023-04-05T09:56:49.339Z,25.78
2023-04-05T09:57:49.359Z,25.78
2023-04-05T09:58:49.412Z,25.77
2023-04-05T09:59:49.391Z,25.77
2023-04-05T10:00:49.413Z,25.76
2023-04-05T10:01:49.423Z,25.75
2023-04-05T10:02:49.481Z,25.75
2023-04-05T10:03:49.508Z,25.74
2023-04-05T10:04:49.475Z,25.74
2023-04-05T10:05:49.453Z,25.73
2023-04-05T10:06:49.502Z,25.73
2023-04-05T10:07:49.494Z,25.72
2023-04-05T10:08:49.511Z,25.70
2023-04-05T10:09:49.534Z,25.70
2023-04-05T10:10:49.547Z,25.69
2023-04-05T10:11:49.562Z,25.69
2023-04-05T10:12:49.624Z,25.68
2023-04-05T10:13:49.711Z,25.67
2023-04-05T10:14:49.775Z,25.66
2023-04-05T10:15:49.928Z,25.66
2023-04-05T10:16:49.940Z,25.65
2023-04-05T10:17:50.083Z,25.64
2023-04-05T10:18:50.086Z,25.64
2023-04-05T10:19:50.179Z,25.63
2023-04-05T10:20:50.254Z,25.62
2023-04-05T10:21:50.324Z,25.63
2023-04-05T10:22:50.432Z,25.61
2023-04-05T10:23:50.498Z,25.61
2023-04-05T10:24:50.569Z,25.60
2023-04-05T10:25:52.588Z,25.60
2023-04-05T10:26:50.913Z,25.58
2023-04-05T10:27:51.017Z,25.58
2023-04-05T10:28:51.089Z,25.58
2023-04-05T10:29:51.221Z,25.58
2023-04-05T10:30:51.289Z,25.57
2023-04-05T10:31:51.425Z,25.55
2023-04-05T10:32:51.565Z,25.54
2023-04-05T10:33:51.538Z,25.53
2023-04-05T10:34:51.651Z,25.53
2023-04-05T10:35:51.793Z,25.52
2023-04-05T10:36:51.824Z,25.51
2023-04-05T10:37:51.889Z,25.51
2023-04-05T10:38:51.988Z,25.50
2023-04-05T10:39:52.112Z,25.50
2023-04-05T10:40:52.161Z,25.49
2023-04-05T10:41:52.336Z,25.49
2023-04-05T10:42:52.337Z,25.48
2023-04-05T10:43:52.422Z,25.48
2023-04-05T10:44:52.511Z,25.46
2023-04-05T10:45:52.680Z,25.45
2023-04-05T10:46:52.743Z,25.44
2023-04-05T10:47:52.807Z,25.43
2023-04-05T10:48:52.857Z,25.42
2023-04-05T10:49:52.927Z,25.42
2023-04-05T10:50:53.028Z,25.42
2023-04-05T10:51:53.073Z,25.41
2023-04-05T10:52:53.146Z,25.40
2023-04-05T10:53:53.159Z,25.39
2023-04-05T10:54:53.215Z,25.40
2023-04-05T10:55:53.307Z,25.39
2023-04-05T10:56:53.319Z,25.38
2023-04-05T10:57:53.348Z,25.37
2023-04-05T10:58:54.111Z,25.37
2023-04-05T10:59:53.660Z,25.37
2023-04-05T11:00:53.673Z,25.36
2023-04-05T11:01:53.716Z,25.35
2023-04-05T11:02:53.776Z,25.35
2023-04-05T11:03:53.828Z,25.34
2023-04-05T11:04:53.866Z,25.34
2023-04-05T11:05:53.909Z,25.32
2023-04-05T11:06:53.975Z,25.32
2023-04-05T11:07:54.015Z,25.31
2023-04-05T11:08:54.059Z,25.30
2023-04-05T11:09:54.091Z,25.29
2023-04-05T11:10:54.126Z,25.27
2023-04-05T11:11:54.195Z,25.27
2023-04-05T11:12:54.223Z,25.26
2023-04-05T11:13:54.268Z,25.23
2023-04-05T11:14:54.303Z,25.22
2023-04-05T11:15:54.344Z,25.19
2023-04-05T11:16:54.546Z,25.18
2023-04-05T11:17:54.472Z,25.18
2023-04-05T11:18:54.445Z,25.17
2023-04-05T11:19:54.488Z,25.14
2023-04-05T11:20:54.514Z,25.13
2023-04-05T11:21:54.553Z,25.12
2023-04-05T11:22:54.585Z,25.11
2023-04-05T11:23:54.604Z,25.11
2023-04-05T11:24:54.625Z,25.12
2023-04-05T11:25:54.699Z,25.11
2023-04-05T11:26:54.761Z,25.09
2023-04-05T11:27:54.721Z,25.09
2023-04-05T11:28:54.772Z,25.10
2023-04-05T11:29:54.769Z,25.10
2023-04-05T11:30:54.896Z,25.10
2023-04-05T11:31:54.812Z,25.10
2023-04-05T11:32:54.871Z,25.10
2023-04-05T11:33:56.826Z,25.09
2023-04-05T11:34:54.878Z,25.09
2023-04-05T11:35:54.928Z,25.10
2023-04-05T11:36:54.923Z,25.10
2023-04-05T11:37:54.952Z,25.08
2023-04-05T11:38:54.954Z,25.08
2023-04-05T11:39:54.988Z,25.07
2023-04-05T11:40:55.027Z,25.07
2023-04-05T11:41:55.046Z,25.06
2023-04-05T11:42:55.060Z,25.05
2023-04-05T11:43:55.062Z,25.05
2023-04-05T11:44:55.103Z,25.04
2023-04-05T11:45:55.125Z,25.04
2023-04-05T11:46:55.171Z,25.04
2023-04-05T11:47:55.230Z,25.04
2023-04-05T11:48:55.204Z,25.04
2023-04-05T11:49:55.217Z,25.04
2023-04-05T11:50:55.245Z,25.04
2023-04-05T11:51:55.285Z,25.03
2023-04-05T11:52:55.283Z,25.02
2023-04-05T11:53:55.317Z,25.03
2023-04-05T11:54:55.355Z,25.02
2023-04-05T11:55:55.424Z,25.03
2023-04-05T11:56:55.426Z,25.03
2023-04-05T11:57:55.429Z,25.03
2023-04-05T11:58:55.527Z,25.04
2023-04-05T11:59:55.483Z,25.04
2023-04-05T12:00:55.501Z,25.05
2023-04-05T12:01:55.568Z,25.06
2023-04-05T12:02:55.588Z,25.06
2023-04-05T12:03:55.686Z,25.06
2023-04-05T12:04:55.749Z,25.06
2023-04-05T12:05:55.640Z,25.04
2023-04-05T12:06:55.654Z,25.03
2023-04-05T12:07:55.657Z,25.03
2023-04-05T12:08:55.705Z,25.01
2023-04-05T12:09:55.724Z,25.01
2023-04-05T12:10:55.757Z,25.00
2023-04-05T12:11:55.760Z,24.99
2023-04-05T12:12:55.797Z,24.97
2023-04-05T12:13:55.844Z,24.97
2023-04-05T12:14:55.837Z,24.99
2023-04-05T12:15:55.975Z,24.98
2023-04-05T12:16:55.914Z,24.96
2023-04-05T12:17:55.955Z,24.96
2023-04-05T12:18:55.945Z,24.96
2023-04-05T12:19:55.999Z,24.96
2023-04-05T12:20:56.011Z,24.96
2023-04-05T12:21:56.016Z,24.95
2023-04-05T12:22:56.117Z,24.96
2023-04-05T12:23:56.083Z,24.97
2023-04-05T12:24:56.099Z,24.99
2023-04-05T12:25:56.127Z,25.02
2023-04-05T12:26:57.942Z,25.05
2023-04-05T12:27:56.165Z,25.06
2023-04-05T12:28:56.453Z,25.07
2023-04-05T12:29:56.237Z,25.09
2023-04-05T12:30:56.624Z,25.10
2023-04-05T12:31:56.254Z,25.11
2023-04-05T12:32:56.324Z,25.12
2023-04-05T12:33:56.296Z,25.12
2023-04-05T12:34:56.314Z,25.14
2023-04-05T12:35:56.380Z,25.15
2023-04-05T12:36:56.351Z,25.15
2023-04-05T12:37:56.385Z,25.15
2023-04-05T12:38:56.414Z,25.16
2023-04-05T12:39:56.480Z,25.16
2023-04-05T12:40:56.439Z,25.17
2023-04-05T12:41:56.460Z,25.16
2023-04-05T12:42:56.514Z,25.16
2023-04-05T12:43:56.494Z,25.17
2023-04-05T12:44:56.551Z,25.17
2023-04-05T12:45:56.602Z,25.18
2023-04-05T12:46:56.567Z,25.18
2023-04-05T12:47:56.705Z,25.18
2023-04-05T12:48:56.610Z,25.18
2023-04-05T12:49:56.622Z,25.19
2023-04-05T12:50:56.661Z,25.19
2023-04-05T12:51:56.705Z,25.19
2023-04-05T12:52:56.721Z,25.19